Time;durP1;ratioP1;P1;durP2;ratioP2;P2;SDS_P1;SDS_P2;PMS_P1;PMS_P2;Temp;Humidity;BMP_temperature;BMP_pressure;BME280_temperature;BME280_humidity;BME280_pressure;Samples;Min_cycle;Max_cycle;Signal;HPM_P1;HPM_P2
2022/05/19 00:01:11;;;;;;;;;;;;;;;19.54;56.90;102005.84;7408552;19;1620;-66
2022/05/19 00:03:40;;;;;;;;;;;;;;;19.55;56.90;102006.69;7407905;19;1860;-66
2022/05/19 00:06:13;;;;;;;;;;;;;;;19.54;56.86;102005.00;7411041;19;979;-66
2022/05/19 00:08:41;;;;;;;;;;;;;;;19.54;56.84;102015.72;7409973;19;1808;-67
2022/05/19 00:11:11;;;;;;;;;;;;;;;19.56;56.52;102013.78;7406586;19;1973;-67
2022/05/19 00:13:40;;;;;;;;;;;;;;;19.53;56.94;102006.78;7409229;19;1619;-65
2022/05/19 00:16:08;;;;;;;;;;;;;;;19.54;56.67;102023.78;7408724;19;1298;-66
2022/05/19 00:18:37;;;;;;;;;;;;;;;19.53;56.71;102005.94;7408888;19;1548;-66
2022/05/19 00:21:06;;;;;;;;;;;;;;;19.52;56.96;102023.00;7410291;19;1580;-65
2022/05/19 00:23:37;;;;;;;;;;;;;;;19.53;56.91;102027.41;7404946;19;1957;-64
2022/05/19 00:26:06;;;;;;;;;;;;;;;19.56;56.93;102029.88;7409372;19;1494;-64
2022/05/19 00:28:34;;;;;;;;;;;;;;;19.54;56.90;102023.78;7408402;19;1505;-64
2022/05/19 00:31:03;;;;;;;;;;;;;;;19.54;56.77;102021.09;7408501;19;1587;-66
2022/05/19 00:33:33;;;;;;;;;;;;;;;19.53;56.64;102022.88;7407404;19;1636;-66
2022/05/19 00:36:01;;;;;;;;;;;;;;;19.54;56.52;102026.47;7410582;19;940;-66
2022/05/19 00:38:29;;;;;;;;;;;;;;;19.52;56.33;102021.19;7409005;19;1313;-66
2022/05/19 00:41:00;;;;;;;;;;;;;;;19.50;56.80;102019.56;7408029;19;1655;-67
2022/05/19 00:43:29;;;;;;;;;;;;;;;19.47;56.70;102026.84;7405203;19;1848;-66
2022/05/19 00:45:59;;;;;;;;;;;;;;;19.48;56.57;102022.38;7408547;19;1595;-66
2022/05/19 00:48:29;;;;;;;;;;;;;;;19.47;56.46;102036.75;7409003;19;1529;-66
2022/05/19 00:50:59;;;;;;;;;;;;;;;19.45;56.46;102019.91;7408742;19;1549;-65
2022/05/19 00:53:31;;;;;;;;;;;;;;;19.47;56.39;102026.84;7408426;19;1587;-66
2022/05/19 00:56:04;;;;;;;;;;;;;;;19.47;56.32;102016.13;7408376;19;1346;-66
2022/05/19 00:58:35;;;;;;;;;;;;;;;19.46;56.41;102024.31;7407716;19;1692;-66
2022/05/19 01:01:03;;;;;;;;;;;;;;;19.45;56.27;102039.53;7406562;19;1519;-66
2022/05/19 01:03:36;;;;;;;;;;;;;;;19.44;56.42;102015.50;7407651;19;1850;-66
2022/05/19 01:06:10;;;;;;;;;;;;;;;19.44;56.36;102032.47;7408764;19;1509;-66
2022/05/19 01:08:42;;;;;;;;;;;;;;;19.43;56.23;102033.41;7406375;19;1596;-66
2022/05/19 01:11:14;;;;;;;;;;;;;;;19.43;56.43;102033.41;7407033;19;1540;-66
2022/05/19 01:13:42;;;;;;;;;;;;;;;19.43;56.45;102040.59;7407702;19;1589;-66
2022/05/19 01:16:11;;;;;;;;;;;;;;;19.44;56.03;102027.09;7407604;19;1231;-66
2022/05/19 01:18:40;;;;;;;;;;;;;;;19.42;56.18;102039.75;7407705;19;1528;-66
2022/05/19 01:21:10;;;;;;;;;;;;;;;19.47;56.22;102053.69;7407741;19;1620;-66
2022/05/19 01:23:45;;;;;;;;;;;;;;;19.42;55.98;102055.84;7406341;19;1867;-66
2022/05/19 01:26:22;;;;;;;;;;;;;;;19.42;56.34;102055.84;7407707;19;1550;-66
2022/05/19 01:28:54;;;;;;;;;;;;;;;19.45;56.07;102060.97;7407115;19;1521;-66
2022/05/19 01:31:35;;;;;;;;;;;;;;;19.42;56.05;102055.84;7407774;19;1369;-66
2022/05/19 01:34:05;;;;;;;;;;;;;;;19.42;56.32;102058.53;7407069;19;1774;-66
2022/05/19 01:36:33;;;;;;;;;;;;;;;19.41;56.27;102061.31;7406925;19;1525;-67
2022/05/19 01:39:06;;;;;;;;;;;;;;;19.39;56.17;102066.78;7406512;19;1596;-66
2022/05/19 01:41:43;;;;;;;;;;;;;;;19.38;55.76;102057.03;7406464;19;1600;-66
2022/05/19 01:44:22;;;;;;;;;;;;;;;19.38;56.01;102075.81;7403105;19;1863;-66
2022/05/19 01:46:53;;;;;;;;;;;;;;;19.39;55.92;102080.19;7407704;19;1730;-66
2022/05/19 01:49:25;;;;;;;;;;;;;;;19.39;55.90;102077.50;7406067;19;1755;-66
2022/05/19 01:51:57;;;;;;;;;;;;;;;19.37;55.73;102057.97;7407077;19;1702;-66
2022/05/19 01:54:28;;;;;;;;;;;;;;;19.38;55.69;102074.97;7405891;19;1781;-66
2022/05/19 01:56:58;;;;;;;;;;;;;;;19.41;55.90;102080.94;7406117;19;1532;-66
2022/05/19 01:59:31;;;;;;;;;;;;;;;19.37;55.90;102066.03;7405676;19;1439;-65
2022/05/19 02:02:03;;;;;;;;;;;;;;;19.35;55.73;102073.31;7394893;19;1953;-66
2022/05/19 02:04:36;;;;;;;;;;;;;;;19.33;55.50;102072.56;7404225;19;1865;-66
2022/05/19 02:07:06;;;;;;;;;;;;;;;19.40;55.44;102083.75;7405613;19;1476;-66
2022/05/19 02:09:37;;;;;;;;;;;;;;;19.34;55.61;102076.97;7403341;19;1310;-66
2022/05/19 02:12:08;;;;;;;;;;;;;;;19.33;55.46;102072.56;7405055;19;1626;-67
2022/05/19 02:14:43;;;;;;;;;;;;;;;19.34;55.81;102092.19;7405362;19;1533;-67
2022/05/19 02:17:13;;;;;;;;;;;;;;;19.34;55.44;102074.31;7405290;19;1611;-67
2022/05/19 02:19:42;;;;;;;;;;;;;;;19.33;55.87;102094.03;7404017;19;1341;-67
2022/05/19 02:22:13;;;;;;;;;;;;;;;19.31;55.64;102084.38;7404708;19;1481;-66
2022/05/19 02:24:44;;;;;;;;;;;;;;;19.34;55.45;102093.06;7403645;19;1854;-66
2022/05/19 02:27:26;;;;;;;;;;;;;;;19.33;55.52;102077.09;7406183;19;1528;-67
2022/05/19 02:29:57;;;;;;;;;;;;;;;19.33;55.46;102098.53;7405762;19;1623;-66
2022/05/19 02:32:25;;;;;;;;;;;;;;;19.33;55.48;102099.41;7405195;19;1200;-67
2022/05/19 02:34:54;;;;;;;;;;;;;;;19.30;55.62;102093.38;7404862;19;1493;-66
2022/05/19 02:37:23;;;;;;;;;;;;;;;19.37;55.46;102106.25;7402604;19;1550;-66
2022/05/19 02:39:51;;;;;;;;;;;;;;;19.33;55.49;102093.19;7403983;19;1749;-67
2022/05/19 02:42:20;;;;;;;;;;;;;;;19.28;55.65;102102.41;7405670;19;1281;-67
2022/05/19 02:44:48;;;;;;;;;;;;;;;19.32;55.48;102110.22;7403380;19;1834;-66
2022/05/19 02:47:19;;;;;;;;;;;;;;;19.30;55.41;102099.63;7405009;19;1661;-66
2022/05/19 02:49:48;;;;;;;;;;;;;;;19.29;55.42;102108.63;7404469;19;1313;-67
2022/05/19 02:52:16;;;;;;;;;;;;;;;19.32;55.35;102121.84;7405522;19;1376;-67
2022/05/19 02:54:45;;;;;;;;;;;;;;;19.30;55.39;102104.97;7407048;19;1739;-67
2022/05/19 02:57:14;;;;;;;;;;;;;;;19.35;55.09;102123.44;7411688;19;1560;-66
2022/05/19 02:59:42;;;;;;;;;;;;;;;19.30;55.58;102129.13;7411472;19;1531;-67
2022/05/19 03:02:11;;;;;;;;;;;;;;;19.29;55.33;102122.03;7408443;19;1397;-66
2022/05/19 03:04:42;;;;;;;;;;;;;;;19.28;55.22;102114.97;7409504;19;1870;-66
2022/05/19 03:07:10;;;;;;;;;;;;;;;19.28;55.09;102128.38;7407584;19;1529;-66
2022/05/19 03:09:42;;;;;;;;;;;;;;;19.27;55.36;102130.16;7409618;19;1537;-66
2022/05/19 03:12:11;;;;;;;;;;;;;;;19.31;55.06;102127.28;7411090;19;1252;-66
2022/05/19 03:14:39;;;;;;;;;;;;;;;19.27;55.24;102121.28;7411713;19;1338;-66
2022/05/19 03:17:08;;;;;;;;;;;;;;;19.29;54.76;102138.13;7410343;19;1305;-66
2022/05/19 03:19:36;;;;;;;;;;;;;;;19.26;55.01;102125.78;7409549;19;1365;-66
2022/05/19 03:22:08;;;;;;;;;;;;;;;19.27;55.04;102132.00;7411281;19;1438;-66
2022/05/19 03:24:37;;;;;;;;;;;;;;;19.26;55.10;102122.25;7408263;19;1851;-66
2022/05/19 03:27:05;;;;;;;;;;;;;;;19.26;54.82;102133.84;7411014;19;1345;-66
2022/05/19 03:29:33;;;;;;;;;;;;;;;19.27;55.07;102124.81;7409563;19;1535;-66
2022/05/19 03:32:02;;;;;;;;;;;;;;;19.31;54.92;102133.50;7409774;19;1536;-66
2022/05/19 03:34:30;;;;;;;;;;;;;;;19.29;54.80;102119.34;7411711;19;1276;-66
2022/05/19 03:36:58;;;;;;;;;;;;;;;19.29;54.62;102132.75;7411671;19;1540;-66
2022/05/19 03:39:29;;;;;;;;;;;;;;;19.30;55.03;102131.81;7409863;19;1231;-66
2022/05/19 03:41:57;;;;;;;;;;;;;;;19.30;54.97;102126.44;7410069;19;1317;-66
2022/05/19 03:44:26;;;;;;;;;;;;;;;19.34;54.89;102122.59;7409722;19;1842;-65
2022/05/19 03:46:54;;;;;;;;;;;;;;;19.37;54.99;102134.91;7410921;19;1650;-66
2022/05/19 03:49:22;;;;;;;;;;;;;;;19.35;55.10;102137.69;7405653;19;1675;-66
2022/05/19 03:51:51;;;;;;;;;;;;;;;19.38;55.09;102129.47;7410827;19;1637;-66
2022/05/19 03:54:19;;;;;;;;;;;;;;;19.40;54.62;102126.69;7410061;19;1635;-66
2022/05/19 03:56:50;;;;;;;;;;;;;;;19.41;54.83;102139.97;7410428;19;1336;-67
2022/05/19 03:59:19;;;;;;;;;;;;;;;19.44;55.11;102134.41;7409434;19;1465;-65
2022/05/19 04:01:47;;;;;;;;;;;;;;;19.48;55.14;102125.19;7405864;19;1633;-66
2022/05/19 04:04:16;;;;;;;;;;;;;;;19.51;55.26;102139.34;7406444;19;1856;-65
2022/05/19 04:06:44;;;;;;;;;;;;;;;19.52;55.46;102135.69;7408022;19;951;-66
2022/05/19 04:09:12;;;;;;;;;;;;;;;19.52;55.36;102131.19;7409737;19;1671;-66
2022/05/19 04:11:40;;;;;;;;;;;;;;;19.53;55.26;102137.41;7409749;19;1754;-66
2022/05/19 04:14:12;;;;;;;;;;;;;;;19.56;55.35;102137.22;7407837;19;1726;-65
2022/05/19 04:16:40;;;;;;;;;;;;;;;19.56;55.13;102131.84;7409249;19;1866;-66
2022/05/19 04:19:09;;;;;;;;;;;;;;;19.60;54.85;102133.34;7410398;19;1330;-66
2022/05/19 04:21:37;;;;;;;;;;;;;;;19.60;54.83;102133.34;7409504;19;1361;-66
2022/05/19 04:24:06;;;;;;;;;;;;;;;19.64;54.90;102137.53;7409282;19;1864;-65
2022/05/19 04:26:34;;;;;;;;;;;;;;;19.65;55.35;102142.78;7407585;19;1683;-66
2022/05/19 04:29:03;;;;;;;;;;;;;;;19.64;54.90;102127.66;7408260;19;1674;-66
2022/05/19 04:31:34;;;;;;;;;;;;;;;19.72;55.21;102139.72;7409516;19;1616;-66
2022/05/19 04:34:04;;;;;;;;;;;;;;;19.70;55.13;102131.75;7407814;19;1396;-66
2022/05/19 04:36:33;;;;;;;;;;;;;;;19.68;55.21;102113.06;7408572;19;1302;-65
2022/05/19 04:39:01;;;;;;;;;;;;;;;19.73;55.32;102125.31;7408988;19;1312;-66
2022/05/19 04:41:29;;;;;;;;;;;;;;;19.75;55.21;102137.66;7409176;19;1624;-66
2022/05/19 04:43:58;;;;;;;;;;;;;;;19.78;55.06;102145.50;7407007;19;1842;-65
2022/05/19 04:46:26;;;;;;;;;;;;;;;19.82;55.20;102135.44;7409167;19;1369;-66
2022/05/19 04:48:57;;;;;;;;;;;;;;;19.82;55.39;102132.75;7407315;19;1593;-66
2022/05/19 04:51:28;;;;;;;;;;;;;;;19.89;55.28;102138.53;7409469;19;1583;-66
2022/05/19 04:53:56;;;;;;;;;;;;;;;19.95;56.76;102127.34;7403809;19;1505;-66
2022/05/19 04:56:25;;;;;;;;;;;;;;;20.01;56.66;102137.66;7408220;19;1370;-66
2022/05/19 04:58:53;;;;;;;;;;;;;;;20.00;56.97;102130.59;7405965;19;1572;-67
2022/05/19 05:01:21;;;;;;;;;;;;;;;20.03;56.88;102120.50;7407505;19;1479;-73
2022/05/19 05:03:50;;;;;;;;;;;;;;;20.16;57.17;102117.78;7405648;19;1881;-65
2022/05/19 05:06:21;;;;;;;;;;;;;;;20.24;57.49;102128.81;7406802;19;1576;-71
2022/05/19 05:08:49;;;;;;;;;;;;;;;20.27;57.05;102117.00;7406984;19;1348;-62
2022/05/19 05:11:17;;;;;;;;;;;;;;;20.29;57.06;102131.16;7406176;19;1286;-68
2022/05/19 05:13:45;;;;;;;;;;;;;;;20.19;57.40;102128.31;7405651;19;1365;-64
2022/05/19 05:16:14;;;;;;;;;;;;;;;20.23;56.84;102132.50;7407692;19;1268;-71
2022/05/19 05:18:42;;;;;;;;;;;;;;;20.20;57.43;102129.16;7405786;19;1463;-63
2022/05/19 05:21:11;;;;;;;;;;;;;;;20.29;57.28;102131.16;7407148;19;1285;-65
2022/05/19 05:23:42;;;;;;;;;;;;;;;20.22;57.53;102122.69;7404756;19;1865;-64
2022/05/19 05:26:11;;;;;;;;;;;;;;;20.25;57.21;102114.44;7407277;19;1614;-64
2022/05/19 05:28:40;;;;;;;;;;;;;;;20.24;57.68;102127.97;7404244;19;1592;-64
2022/05/19 05:31:08;;;;;;;;;;;;;;;20.21;57.19;102122.81;7406818;19;1400;-63
2022/05/19 05:33:36;;;;;;;;;;;;;;;20.25;57.41;102130.56;7406886;19;1490;-67
2022/05/19 05:36:05;;;;;;;;;;;;;;;20.20;57.49;102124.63;7407083;19;1260;-63
2022/05/19 05:38:34;;;;;;;;;;;;;;;20.21;57.25;102129.06;7404133;19;1330;-65
2022/05/19 05:41:05;;;;;;;;;;;;;;;20.04;57.82;102121.34;7406810;19;1608;-65
2022/05/19 05:43:35;;;;;;;;;;;;;;;20.06;57.78;102119.41;7404052;19;1375;-65
2022/05/19 05:46:07;;;;;;;;;;;;;;;20.10;57.17;102126.28;7401561;19;1853;-64
2022/05/19 05:48:36;;;;;;;;;;;;;;;20.10;57.67;102120.06;7402553;19;1358;-65
2022/05/19 05:51:06;;;;;;;;;;;;;;;20.10;57.63;102131.66;7404507;19;1316;-65
2022/05/19 05:53:34;;;;;;;;;;;;;;;20.10;57.82;102117.38;7404247;19;1315;-64
2022/05/19 05:56:06;;;;;;;;;;;;;;;20.10;57.53;102110.16;7403929;19;1306;-65
2022/05/19 05:58:35;;;;;;;;;;;;;;;20.11;57.32;102122.59;7402828;19;1408;-65
2022/05/19 06:01:03;;;;;;;;;;;;;;;20.17;57.75;102135.59;7404925;19;1679;-65
2022/05/19 06:03:32;;;;;;;;;;;;;;;20.16;57.65;102117.78;7405231;19;1623;-65
2022/05/19 06:06:01;;;;;;;;;;;;;;;20.14;57.63;102116.19;7402998;19;1850;-65
2022/05/19 06:08:29;;;;;;;;;;;;;;;20.16;57.85;102128.50;7405326;19;1615;-65
2022/05/19 06:10:59;;;;;;;;;;;;;;;20.19;57.55;102136.38;7405152;19;1592;-65
2022/05/19 06:13:30;;;;;;;;;;;;;;;20.18;57.51;102134.63;7404219;19;1460;-65
2022/05/19 06:15:58;;;;;;;;;;;;;;;20.14;57.60;102125.09;7405820;19;1305;-65
2022/05/19 06:18:27;;;;;;;;;;;;;;;20.19;57.59;102135.50;7403016;19;1571;-65
2022/05/19 06:20:56;;;;;;;;;;;;;;;20.18;57.74;102136.47;7404815;19;1508;-65
2022/05/19 06:23:25;;;;;;;;;;;;;;;20.18;57.55;102137.31;7404257;19;1488;-65
2022/05/19 06:25:53;;;;;;;;;;;;;;;20.18;57.63;102136.47;7404251;19;1863;-65
2022/05/19 06:28:21;;;;;;;;;;;;;;;20.21;57.36;102145.19;7405834;19;1428;-65
2022/05/19 06:30:52;;;;;;;;;;;;;;;20.20;57.42;102127.31;7404656;19;960;-65
2022/05/19 06:33:22;;;;;;;;;;;;;;;20.23;57.28;102131.59;7405269;19;1522;-65
2022/05/19 06:35:51;;;;;;;;;;;;;;;20.23;57.25;102135.19;7404296;19;1742;-65
2022/05/19 06:38:19;;;;;;;;;;;;;;;20.23;57.46;102135.19;7404313;19;1762;-65
2022/05/19 06:40:48;;;;;;;;;;;;;;;20.25;57.32;102129.66;7405032;19;1615;-65
2022/05/19 06:43:19;;;;;;;;;;;;;;;20.25;57.27;102141.28;7405574;19;1525;-65
2022/05/19 06:45:47;;;;;;;;;;;;;;;20.28;57.19;102129.47;7404736;19;1829;-65
2022/05/19 06:48:18;;;;;;;;;;;;;;;20.29;57.19;102130.31;7405854;19;1708;-65
2022/05/19 06:50:46;;;;;;;;;;;;;;;20.30;57.10;102122.16;7404112;19;1769;-65
2022/05/19 06:53:15;;;;;;;;;;;;;;;20.34;57.41;102136.22;7404593;19;1537;-65
2022/05/19 06:55:43;;;;;;;;;;;;;;;20.33;57.72;102126.44;7404181;19;1604;-65
2022/05/19 06:58:11;;;;;;;;;;;;;;;20.31;57.58;102144.50;7404775;19;1529;-65
2022/05/19 07:00:40;;;;;;;;;;;;;;;20.35;57.70;102144.19;7404875;19;1631;-65
2022/05/19 07:03:09;;;;;;;;;;;;;;;20.32;57.52;102136.31;7404200;19;1659;-65
2022/05/19 07:05:40;;;;;;;;;;;;;;;20.38;57.41;102151.16;7404064;19;1853;-65
2022/05/19 07:08:09;;;;;;;;;;;;;;;20.34;57.69;102130.84;7400233;19;1492;-65
2022/05/19 07:10:37;;;;;;;;;;;;;;;20.33;57.86;102126.44;7403488;19;1251;-65
2022/05/19 07:13:06;;;;;;;;;;;;;;;20.36;57.86;102131.59;7404484;19;1516;-65
2022/05/19 07:15:34;;;;;;;;;;;;;;;20.33;57.60;102131.81;7402465;19;1746;-65
2022/05/19 07:18:03;;;;;;;;;;;;;;;20.34;58.00;102145.13;7402323;19;1558;-64
2022/05/19 07:20:43;;;;;;;;;;;;;;;20.37;57.79;102144.03;7404257;19;1544;-65
2022/05/19 07:23:19;;;;;;;;;;;;;;;20.32;57.70;102141.69;7404429;19;1533;-65
2022/05/19 07:25:47;;;;;;;;;;;;;;;20.29;57.96;102146.44;7401257;19;1853;-65
2022/05/19 07:28:18;;;;;;;;;;;;;;;20.33;57.58;102147.94;7402988;19;1485;-65
2022/05/19 07:30:47;;;;;;;;;;;;;;;20.33;57.70;102156.84;7402915;19;1435;-65
2022/05/19 07:33:15;;;;;;;;;;;;;;;20.32;58.05;102155.13;7403041;19;1530;-65
2022/05/19 07:35:46;;;;;;;;;;;;;;;20.35;57.63;102156.72;7401645;19;1747;-65
2022/05/19 07:38:17;;;;;;;;;;;;;;;20.36;57.98;102150.41;7402611;19;1755;-65
2022/05/19 07:40:46;;;;;;;;;;;;;;;20.36;57.89;102161.16;7403541;19;1520;-64
2022/05/19 07:45:55;;;;;;;;;;;;;;;20.33;57.86;102156.84;7407984;19;1859;-65
2022/05/19 07:48:23;;;;;;;;;;;;;;;20.37;58.17;102173.59;7410777;19;1525;-65
2022/05/19 07:50:52;;;;;;;;;;;;;;;20.36;57.79;102163.84;7407842;19;1484;-65
2022/05/19 07:53:25;;;;;;;;;;;;;;;20.37;57.66;102152.09;7407946;19;1544;-65
2022/05/19 07:55:53;;;;;;;;;;;;;;;20.37;57.81;102157.47;7410182;19;1549;-65
2022/05/19 07:58:22;;;;;;;;;;;;;;;20.37;58.17;102150.31;7411426;19;1513;-64
2022/05/19 08:00:51;;;;;;;;;;;;;;;20.38;58.38;102167.28;7410087;19;1623;-65
2022/05/19 08:03:20;;;;;;;;;;;;;;;20.37;57.96;102144.94;7409697;19;1271;-65
2022/05/19 08:05:48;;;;;;;;;;;;;;;20.42;57.77;102160.72;7409240;19;1846;-65
2022/05/19 08:08:17;;;;;;;;;;;;;;;20.38;57.94;102140.41;7408185;19;1723;-66
2022/05/19 08:10:48;;;;;;;;;;;;;;;20.38;57.92;102140.41;7408476;19;1357;-65
2022/05/19 08:16:11;;;;;;;;;;;;;;;20.37;58.05;102142.25;7401123;19;1301;-64
2022/05/19 08:18:40;;;;;;;;;;;;;;;20.39;58.11;102131.34;7409194;19;1626;-65
2022/05/19 08:21:11;;;;;;;;;;;;;;;20.45;58.25;102138.97;7409392;19;1494;-65
2022/05/19 08:23:40;;;;;;;;;;;;;;;20.57;57.63;102151.53;7405783;19;1619;-69
2022/05/19 08:26:11;;;;;;;;;;;;;;;20.55;58.30;102141.84;7406058;19;1853;-64
2022/05/19 08:28:41;;;;;;;;;;;;;;;20.55;57.81;102136.47;7407716;19;1381;-65
2022/05/19 08:31:15;;;;;;;;;;;;;;;20.55;58.00;102134.66;7405796;19;1529;-66
2022/05/19 08:33:46;;;;;;;;;;;;;;;20.53;58.46;102133.03;7408334;19;1362;-65
2022/05/19 08:36:15;;;;;;;;;;;;;;;20.54;58.39;102134.78;7410479;19;988;-68
2022/05/19 08:38:44;;;;;;;;;;;;;;;20.49;58.53;102127.03;7407793;19;1667;-70
2022/05/19 08:41:17;;;;;;;;;;;;;;;20.52;58.77;102136.72;7407897;19;1762;-66
2022/05/19 08:43:48;;;;;;;;;;;;;;;20.47;58.61;102128.97;7408298;19;1577;-68
2022/05/19 08:46:26;;;;;;;;;;;;;;;20.52;58.74;102134.88;7408050;19;1856;-65
2022/05/19 08:48:56;;;;;;;;;;;;;;;20.52;58.48;102137.56;7406522;19;1293;-66
2022/05/19 08:51:27;;;;;;;;;;;;;;;20.50;58.21;102127.91;7407955;19;1310;-66
2022/05/19 08:54:00;;;;;;;;;;;;;;;20.55;58.04;102112.28;7405998;19;1712;-66
2022/05/19 08:56:35;;;;;;;;;;;;;;;20.67;58.41;102135.59;7408669;19;1436;-66
2022/05/19 08:59:08;;;;;;;;;;;;;;;20.69;58.37;102117.56;7409100;19;1486;-66
2022/05/19 09:01:40;;;;;;;;;;;;;;;20.74;58.75;102114.53;7405788;19;1507;-66
2022/05/19 09:04:14;;;;;;;;;;;;;;;20.73;58.86;102126.22;7407308;19;1505;-66
2022/05/19 09:09:36;;;;;;;;;;;;;;;20.76;58.91;102120.63;7407726;19;1470;-65
2022/05/19 09:12:09;;;;;;;;;;;;;;;20.76;59.21;102117.94;7409107;19;1600;-66
2022/05/19 09:14:39;;;;;;;;;;;;;;;20.80;60.28;102111.38;7406677;19;1502;-66
2022/05/19 09:17:09;;;;;;;;;;;;;;;20.66;60.05;102107.88;7406981;19;1401;-68
2022/05/19 09:19:41;;;;;;;;;;;;;;;20.64;60.23;102112.50;7407588;19;1473;-69
2022/05/19 09:22:11;;;;;;;;;;;;;;;20.60;60.17;102110.16;7408226;19;1727;-66
2022/05/19 09:24:40;;;;;;;;;;;;;;;20.68;60.17;102104.22;7407798;19;1529;-67
2022/05/19 09:27:11;;;;;;;;;;;;;;;20.68;60.27;102110.44;7405605;19;1902;-66
2022/05/19 09:29:42;;;;;;;;;;;;;;;20.61;60.08;102099.31;7406613;19;1354;-64
2022/05/19 09:32:15;;;;;;;;;;;;;;;20.68;60.65;102088.09;7405098;19;1463;-69
2022/05/19 09:34:44;;;;;;;;;;;;;;;20.68;60.69;102101.53;7406546;19;1333;-63
2022/05/19 09:37:14;;;;;;;;;;;;;;;20.59;60.47;102093.19;7405744;19;1619;-67
2022/05/19 09:39:47;;;;;;;;;;;;;;;20.60;60.57;102088.66;7405942;19;1350;-65
2022/05/19 09:42:22;;;;;;;;;;;;;;;20.59;60.78;102120.06;7406461;19;1553;-69
2022/05/19 09:44:52;;;;;;;;;;;;;;;20.55;60.82;102104.22;7404871;19;1326;-66
2022/05/19 09:47:23;;;;;;;;;;;;;;;20.57;60.68;102099.59;7403915;19;1842;-68
2022/05/19 09:49:54;;;;;;;;;;;;;;;20.60;61.15;102084.13;7405985;19;1450;-71
2022/05/19 09:52:26;;;;;;;;;;;;;;;20.71;61.28;102077.97;7406244;19;1474;-67
2022/05/19 09:54:56;;;;;;;;;;;;;;;20.76;61.47;102081.16;7406755;19;1333;-65
2022/05/19 09:57:36;;;;;;;;;;;;;;;20.69;61.63;102085.31;7403699;19;1509;-66
2022/05/19 10:00:07;;;;;;;;;;;;;;;20.73;61.21;102086.78;7406383;19;1520;-65
2022/05/19 10:02:39;;;;;;;;;;;;;;;20.76;61.14;102081.16;7400980;19;1479;-69
2022/05/19 10:05:20;;;;;;;;;;;;;;;20.80;60.85;102071.88;7402049;19;1630;-66
2022/05/19 10:07:51;;;;;;;;;;;;;;;20.87;61.00;102069.63;7406451;19;1566;-65
2022/05/19 10:10:21;;;;;;;;;;;;;;;20.87;61.10;102072.31;7405599;19;1313;-66
2022/05/19 10:12:54;;;;;;;;;;;;;;;20.89;61.57;102075.75;7404888;19;1762;-67
2022/05/19 10:15:26;;;;;;;;;;;;;;;20.93;61.14;102076.34;7405971;19;1622;-67
2022/05/19 10:18:01;;;;;;;;;;;;;;;20.93;61.92;102062.88;7403080;19;1622;-65
2022/05/19 10:20:32;;;;;;;;;;;;;;;20.95;62.46;102055.56;7403151;19;1302;-70
2022/05/19 10:23:07;;;;;;;;;;;;;;;20.97;63.35;102062.56;7404887;19;1283;-66
2022/05/19 10:25:44;;;;;;;;;;;;;;;21.02;63.96;102064.88;7405178;19;1853;-67
2022/05/19 10:31:12;;;;;;;;;;;;;;;21.07;64.69;102060.03;7405270;19;1337;-70
2022/05/19 10:33:45;;;;;;;;;;;;;;;21.08;65.05;102069.78;7403877;19;1472;-63
2022/05/19 10:36:18;;;;;;;;;;;;;;;21.10;65.64;102040.94;7405318;19;1604;-65
2022/05/19 10:38:51;;;;;;;;;;;;;;;21.16;65.69;102028.88;7404941;19;1281;-67
2022/05/19 10:41:26;;;;;;;;;;;;;;;21.16;66.92;102050.38;7404842;19;1360;-67
2022/05/19 10:44:06;;;;;;;;;;;;;;;21.23;66.79;102044.41;7404531;19;1347;-70
2022/05/19 10:46:45;;;;;;;;;;;;;;;21.30;66.88;102039.41;7405436;19;1864;-66
2022/05/19 10:49:38;;;;;;;;;;;;;;;21.15;68.50;102041.47;7405389;19;1314;-64
2022/05/19 10:52:09;;;;;;;;;;;;;;;21.08;68.51;102039.34;7401148;19;1727;-68
2022/05/19 10:54:44;;;;;;;;;;;;;;;21.02;67.63;102040.69;7404020;19;1523;-65
2022/05/19 10:57:22;;;;;;;;;;;;;;;21.03;68.66;102035.19;7400633;19;1552;-74
2022/05/19 11:00:12;;;;;;;;;;;;;;;21.10;65.46;102032.88;7404972;19;1446;-73
2022/05/19 11:02:54;;;;;;;;;;;;;;;21.21;66.16;102030.22;7401128;19;1605;-67
2022/05/19 11:05:35;;;;;;;;;;;;;;;21.32;66.01;102039.28;7403138;19;1572;-63
2022/05/19 11:08:06;;;;;;;;;;;;;;;21.33;66.29;102031.09;7404102;19;1529;-70
2022/05/19 11:10:39;;;;;;;;;;;;;;;21.25;66.17;102017.41;7403286;19;1563;-74
2022/05/19 11:13:17;;;;;;;;;;;;;;;21.18;65.10;102032.28;7402568;19;1894;-70
2022/05/19 11:15:48;;;;;;;;;;;;;;;21.10;65.77;102032.03;7405679;19;1269;-65
2022/05/19 11:18:21;;;;;;;;;;;;;;;21.10;64.67;102018.59;7412438;19;1282;-62
2022/05/19 11:20:56;;;;;;;;;;;;;;;21.03;66.06;102021.75;7408325;19;1853;-62
2022/05/19 11:23:27;;;;;;;;;;;;;;;20.97;65.32;102019.53;7406041;19;1423;-64
2022/05/19 11:28:55;;;;;;;;;;;;;;;20.77;65.29;102014.81;7404156;19;1372;-63
2022/05/19 11:31:27;;;;;;;;;;;;;;;20.86;65.01;102006.03;7411522;19;1534;-64
2022/05/19 11:34:00;;;;;;;;;;;;;;;20.81;64.93;102009.09;7409551;19;1676;-61
2022/05/19 11:36:36;;;;;;;;;;;;;;;20.61;61.76;102001.66;7411151;19;1616;-62
2022/05/19 11:39:07;;;;;;;;;;;;;;;20.58;57.68;102008.13;7408074;19;1571;-62
2022/05/19 11:41:37;;;;;;;;;;;;;;;20.41;56.41;102001.34;7409786;19;1597;-63
2022/05/19 11:44:10;;;;;;;;;;;;;;;20.56;58.02;101999.31;7410009;19;1777;-66
2022/05/19 11:46:43;;;;;;;;;;;;;;;20.55;58.42;101992.22;7409874;19;1858;-64
2022/05/19 11:57:31;;;;;;;;;;;;;;;20.66;55.43;101988.75;7412175;19;1576;-70
2022/05/19 12:00:00;;;;;;;;;;;;;;;20.63;53.59;101999.72;7410771;19;1385;-67
2022/05/19 12:02:32;;;;;;;;;;;;;;;20.64;55.79;101988.00;7405388;19;1503;-64
2022/05/19 12:05:10;;;;;;;;;;;;;;;20.65;53.63;101985.22;7409316;19;1322;-60
2022/05/19 12:07:43;;;;;;;;;;;;;;;20.55;54.35;101976.13;7407481;19;1865;-66
2022/05/19 12:10:12;;;;;;;;;;;;;;;20.60;53.82;101973.94;7407826;19;1590;-77
2022/05/19 12:12:41;;;;;;;;;;;;;;;20.62;55.06;101955.88;7409612;19;1566;-64
2022/05/19 12:15:21;;;;;;;;;;;;;;;20.69;53.20;101968.84;7406353;19;1236;-64
2022/05/19 12:17:57;;;;;;;;;;;;;;;20.65;55.92;101960.16;7410400;19;1460;-67
2022/05/19 12:20:52;;;;;;;;;;;;;;;20.66;56.49;101962.72;7409051;19;1584;-62
2022/05/19 12:23:29;;;;;;;;;;;;;;;20.69;57.69;101956.28;7408387;19;1545;-73
2022/05/19 12:26:00;;;;;;;;;;;;;;;20.74;58.81;101951.38;7409392;19;1841;-68
2022/05/19 12:28:49;;;;;;;;;;;;;;;20.73;58.68;101946.13;7407302;19;1306;-71
2022/05/19 12:34:05;;;;;;;;;;;;;;;20.56;56.64;101953.63;7410045;19;1458;-69
2022/05/19 12:36:47;;;;;;;;;;;;;;;20.56;55.28;101956.31;7408164;19;1348;-67
2022/05/19 12:39:30;;;;;;;;;;;;;;;20.57;56.71;101939.22;7409470;19;1461;-69
2022/05/19 12:42:00;;;;;;;;;;;;;;;20.58;56.60;101938.25;7407756;19;1365;-69
2022/05/19 12:44:29;;;;;;;;;;;;;;;20.65;54.12;101944.03;7403772;19;1238;-68
2022/05/19 12:47:05;;;;;;;;;;;;;;;20.56;53.00;101940.19;7403136;19;1860;-67
2022/05/19 12:49:36;;;;;;;;;;;;;;;20.49;55.24;101944.31;7403885;19;1495;-68
2022/05/19 12:52:11;;;;;;;;;;;;;;;20.43;53.10;101929.53;7406647;19;1747;-67
2022/05/19 12:54:52;;;;;;;;;;;;;;;20.52;52.88;101922.59;7407284;19;1684;-72
2022/05/19 12:57:28;;;;;;;;;;;;;;;20.55;52.79;101933.13;7408744;19;1683;-66
2022/05/19 13:00:08;;;;;;;;;;;;;;;20.70;54.15;101936.47;7405351;19;1537;-69
2022/05/19 13:02:40;;;;;;;;;;;;;;;20.62;53.74;101930.84;7405510;19;1494;-71
2022/05/19 13:05:14;;;;;;;;;;;;;;;20.68;54.19;101914.22;7407438;19;1472;-69
2022/05/19 13:07:49;;;;;;;;;;;;;;;20.66;54.59;101925.09;7406349;19;1821;-68
2022/05/19 13:10:20;;;;;;;;;;;;;;;20.71;55.28;101916.69;7406567;19;1723;-67
2022/05/19 13:12:51;;;;;;;;;;;;;;;20.64;55.94;101910.06;7408550;19;1667;-68
2022/05/19 13:15:27;;;;;;;;;;;;;;;20.68;56.36;101902.63;7404574;19;1683;-63
2022/05/19 13:17:55;;;;;;;;;;;;;;;20.59;53.48;101909.56;7407217;19;1651;-69
2022/05/19 13:20:26;;;;;;;;;;;;;;;20.74;55.00;101907.53;7407579;19;1345;-62
2022/05/19 13:23:00;;;;;;;;;;;;;;;20.65;54.97;101909.97;7407187;19;1632;-67
2022/05/19 13:25:29;;;;;;;;;;;;;;;20.67;54.82;101909.81;7408344;19;1464;-66
2022/05/19 13:30:49;;;;;;;;;;;;;;;20.54;56.05;101874.09;7409560;19;792;-66
2022/05/19 13:33:21;;;;;;;;;;;;;;;20.42;50.01;101892.88;7406883;19;1778;-65
2022/05/19 13:35:58;;;;;;;;;;;;;;;20.43;49.08;101896.41;7406961;19;1499;-64